Terminal Aerodrome Forecast
Issued by NWS Green Bay, WI

Home | Current Version | Previous Version | Text Only | Print | Product List | Glossary Off
Versions: 1 2 3 4 5 6 7 8 9 10 11 12 13 14 15 16 17 18 19 20 21 22 23 24 25 26 27 28 29 30 31 32 33 34 35 36 37 38 39 40

536
FTUS43 KGRB 261701 AAB
TAFGRB
TAF AMD
KGRB 261701Z 2617/2712 17009KT P6SM OVC050
      TEMPO 2617/2619 2SM RA OVC025
     FM261900 20009G17KT P6SM OVC040
     FM270300 VRB03KT 6SM RA OVC021
     FM270600 32007KT 4SM RA BR OVC010=

USA.gov is the U.S. government's official web portal to all federal, state and local government web resources and services.